Hanseatic Scout — V2BM2 — position and weather

sailwx.info

Track history (hours):
 
Tides and Currents Weather Stations Pressure Air Temp Water Temp Dewpoint Dewpoint Depression Visibility Wind Speed Wind Dir Waves Ship Positions

Hanseatic Scout

Last reported at 2014-Sep-19 07:33 UTC. Time now 2014-Sep-19 07:55 UTC.
Position N 54°51' E 005°46'.

Length 89 m; draft 6.1 m.

Type: Ship (hazmat cat C). MMSI: 304867000.

Date/timePositionNaut miles runAvg speedWind from/ knotsBaromVisibWave heightAir tempDewpointWater temp
2014-Sep-19 07:33N 54°51' E 005°46'1010.1
2014-Sep-19 06:33N 54°60' E 005°56'22410.0
2014-Sep-18 08:12N 57°46' E 010°27'811.4
2014-Sep-18 07:29N 57°46' E 010°42'6 1.6
2014-Sep-18 04:06N 57°42' E 010°36'4 6.7
2014-Sep-18 03:29N 57°44' E 010°43'7 7.7
2014-Sep-18 02:33N 57°51' E 010°42'8 7.8
2014-Sep-18 01:33N 57°58' E 010°36'8 7.9
2014-Sep-18 00:32N 58°05' E 010°29'18 8.5
2014-Sep-17 22:27N 58°22' E 010°17'32 8.1
2014-Sep-17 18:27N 58°51' E 009°52'15 7.9
2014-Sep-17 16:34N 59°04' E 009°39'  
2014-Sep-14 12:27N 59°04' E 009°42'6 6.0
2014-Sep-14 11:29N 58°58' E 009°47'54 9.0
2014-Sep-14 05:26N 58°07' E 009°17'7910.0
2014-Sep-13 21:33N 56°59' E 008°01'191 9.6
2014-Sep-13 01:33N 54°15' E 005°07'10 9.4
2014-Sep-13 00:31N 54°07' E 004°58'9 9.4
2014-Sep-12 23:33N 53°57' E 004°56'10 9.7
2014-Sep-12 22:33N 53°48' E 004°53'2310.1
2014-Sep-12 20:16N 53°26' E 004°42'810.9
2014-Sep-12 19:32N 53°18' E 004°37'1211.6
2014-Sep-12 18:31N 53°08' E 004°28'1111.3
2014-Sep-12 17:33N 52°58' E 004°20'1111.0
2014-Sep-12 16:33N 52°49' E 004°11'1010.4
2014-Sep-12 15:33N 52°41' E 004°00'10 9.8
2014-Sep-12 14:34N 52°34' E 003°49'18 9.0
2014-Sep-12 12:33N 52°20' E 003°29'8 8.5
2014-Sep-12 11:33N 52°14' E 003°19'46 8.7
2014-Sep-12 06:13N 51°40' E 002°29'1417.1
2014-Sep-12 05:24N 51°29' E 002°15'7 6.4
2014-Sep-12 04:17N 51°22' E 002°10'911.7
2014-Sep-12 03:32N 51°14' E 002°05'1212.1
2014-Sep-12 02:33N 51°08' E 001°49'1513.2
2014-Sep-12 01:24N 50°57' E 001°32'4510.8
2014-Sep-11 21:12N 50°27' E 000°39'710.2
2014-Sep-11 20:30N 50°24' E 000°29'  
Track history (hours):
 
Tides and Currents Weather Stations Pressure Air Temp Water Temp Dewpoint Dewpoint Depression Visibility Wind Speed Wind Dir Waves Ship Positions

Hanseatic Scout

Last reported at 2014-Sep-19 07:33 UTC. Time now 2014-Sep-19 07:55 UTC.
Position N 54°51' E 005°46'.

Length 89 m; draft 6.1 m.

Type: Ship (hazmat cat C). MMSI: 304867000.

Date/timePositionNaut miles runAvg speedWind from/ knotsBaromVisibWave heightAir tempDewpointWater temp
2014-Sep-19 07:33N 54°51' E 005°46'1010.1
2014-Sep-19 06:33N 54°60' E 005°56'22410.0
2014-Sep-18 08:12N 57°46' E 010°27'811.4
2014-Sep-18 07:29N 57°46' E 010°42'6 1.6
2014-Sep-18 04:06N 57°42' E 010°36'4 6.7
2014-Sep-18 03:29N 57°44' E 010°43'7 7.7
2014-Sep-18 02:33N 57°51' E 010°42'8 7.8
2014-Sep-18 01:33N 57°58' E 010°36'8 7.9
2014-Sep-18 00:32N 58°05' E 010°29'18 8.5
2014-Sep-17 22:27N 58°22' E 010°17'32 8.1
2014-Sep-17 18:27N 58°51' E 009°52'15 7.9
2014-Sep-17 16:34N 59°04' E 009°39'  
2014-Sep-14 12:27N 59°04' E 009°42'6 6.0
2014-Sep-14 11:29N 58°58' E 009°47'54 9.0
2014-Sep-14 05:26N 58°07' E 009°17'7910.0
2014-Sep-13 21:33N 56°59' E 008°01'191 9.6
2014-Sep-13 01:33N 54°15' E 005°07'10 9.4
2014-Sep-13 00:31N 54°07' E 004°58'9 9.4
2014-Sep-12 23:33N 53°57' E 004°56'10 9.7
2014-Sep-12 22:33N 53°48' E 004°53'2310.1
2014-Sep-12 20:16N 53°26' E 004°42'810.9
2014-Sep-12 19:32N 53°18' E 004°37'1211.6
2014-Sep-12 18:31N 53°08' E 004°28'1111.3
2014-Sep-12 17:33N 52°58' E 004°20'1111.0
2014-Sep-12 16:33N 52°49' E 004°11'1010.4
2014-Sep-12 15:33N 52°41' E 004°00'10 9.8
2014-Sep-12 14:34N 52°34' E 003°49'18 9.0
2014-Sep-12 12:33N 52°20' E 003°29'8 8.5
2014-Sep-12 11:33N 52°14' E 003°19'46 8.7
2014-Sep-12 06:13N 51°40' E 002°29'1417.1
2014-Sep-12 05:24N 51°29' E 002°15'7 6.4
2014-Sep-12 04:17N 51°22' E 002°10'911.7
2014-Sep-12 03:32N 51°14' E 002°05'1212.1
2014-Sep-12 02:33N 51°08' E 001°49'1513.2
2014-Sep-12 01:24N 50°57' E 001°32'4510.8
2014-Sep-11 21:12N 50°27' E 000°39'710.2
2014-Sep-11 20:30N 50°24' E 000°29'  

Dump ship's entire track history